Time;durP1;ratioP1;P1;durP2;ratioP2;P2;SDS_P1;SDS_P2;PMS_P1;PMS_P2;Temp;Humidity;BMP_temperature;BMP_pressure;BME280_temperature;BME280_humidity;BME280_pressure;Samples;Min_cycle;Max_cycle;Signal;HPM_P1;HPM_P2
2022/10/12 00:00:09;;;;;;;7.75;3.33;;;;;;;;;;10341053;28;20124;-77
2022/10/12 00:05:19;;;;;;;9.00;3.28;;;;;;;;;;10356740;28;20128;-78
2022/10/12 00:10:22;;;;;;;3.30;1.60;;;;;;;;;;10347708;28;20517;-79
2022/10/12 00:15:26;;;;;;;4.20;2.45;;;;;;;;;;10308907;28;20042;-77
2022/10/12 00:20:30;;;;;;;5.55;1.92;;;;;;;;;;10327701;28;20040;-80
2022/10/12 00:25:36;;;;;;;4.22;2.13;;;;;;;;;;10313306;28;20418;-75
2022/10/12 00:30:41;;;;;;;3.97;2.05;;;;;;;;;;10352459;28;20038;-77
2022/10/12 00:35:45;;;;;;;4.60;1.73;;;;;;;;;;10373895;28;20440;-77
2022/10/12 00:40:49;;;;;;;4.63;2.00;;;;;;;;;;10330632;28;20055;-77
2022/10/12 00:45:52;;;;;;;3.65;1.77;;;;;;;;;;10342508;28;20043;-76
2022/10/12 00:50:59;;;;;;;3.33;1.70;;;;;;;;;;10345195;28;20429;-78
2022/10/12 00:56:06;;;;;;;4.57;1.70;;;;;;;;;;10337044;28;20507;-79
2022/10/12 01:01:10;;;;;;;2.45;1.20;;;;;;;;;;10333709;28;20038;-78
2022/10/12 01:06:15;;;;;;;4.22;1.50;;;;;;;;;;10315053;28;20418;-78
2022/10/12 01:11:18;;;;;;;2.45;1.30;;;;;;;;;;10336400;28;20042;-77
2022/10/12 01:16:26;;;;;;;2.47;1.10;;;;;;;;;;10352633;28;20054;-77
2022/10/12 01:21:37;;;;;;;1.77;1.25;;;;;;;;;;10344109;28;20049;-77
2022/10/12 01:27:12;;;;;;;1.83;1.00;;;;;;;;;;10335201;28;20088;-77
2022/10/12 01:32:21;;;;;;;1.67;1.20;;;;;;;;;;10356931;28;20034;-76
2022/10/12 01:37:34;;;;;;;2.83;1.48;;;;;;;;;;10340647;28;20041;-78
2022/10/12 01:42:41;;;;;;;1.65;1.10;;;;;;;;;;10357123;28;20083;-78
2022/10/12 01:47:51;;;;;;;1.98;1.10;;;;;;;;;;10349862;28;20046;-78
2022/10/12 01:52:59;;;;;;;2.50;1.17;;;;;;;;;;10362448;28;20505;-75
2022/10/12 01:58:17;;;;;;;2.72;1.20;;;;;;;;;;10342030;28;20057;-80
2022/10/12 02:03:31;;;;;;;1.70;1.23;;;;;;;;;;10352205;28;20053;-77
2022/10/12 02:08:41;;;;;;;4.78;1.38;;;;;;;;;;10335660;28;20452;-80
2022/10/12 02:13:48;;;;;;;3.60;1.38;;;;;;;;;;10348953;28;20038;-79
2022/10/12 02:18:55;;;;;;;2.92;1.10;;;;;;;;;;10353035;28;20133;-80
2022/10/12 02:24:04;;;;;;;2.47;1.35;;;;;;;;;;10359303;28;20494;-79
2022/10/12 02:29:10;;;;;;;2.03;1.27;;;;;;;;;;10375494;28;20038;-78
2022/10/12 02:34:18;;;;;;;1.90;1.33;;;;;;;;;;10367343;28;20045;-78
2022/10/12 02:39:25;;;;;;;2.58;1.17;;;;;;;;;;10360041;28;20046;-77
2022/10/12 02:44:32;;;;;;;1.38;0.93;;;;;;;;;;10359324;28;20493;-78
2022/10/12 02:49:37;;;;;;;2.28;0.90;;;;;;;;;;10339950;28;20057;-76
2022/10/12 02:54:41;;;;;;;1.83;1.00;;;;;;;;;;10349568;28;20034;-78
2022/10/12 02:59:44;;;;;;;2.78;1.13;;;;;;;;;;10357263;28;20045;-78
2022/10/12 03:04:49;;;;;;;1.40;1.10;;;;;;;;;;10356677;28;20042;-78
2022/10/12 03:09:52;;;;;;;2.25;1.05;;;;;;;;;;10344752;28;20052;-77
2022/10/12 03:14:55;;;;;;;1.30;1.08;;;;;;;;;;10357689;28;20069;-78
2022/10/12 03:20:00;;;;;;;2.15;1.00;;;;;;;;;;10339984;28;20046;-78
2022/10/12 03:25:06;;;;;;;1.88;1.27;;;;;;;;;;10348948;28;20048;-80
2022/10/12 03:30:11;;;;;;;1.50;1.05;;;;;;;;;;10340613;28;20088;-79
2022/10/12 03:35:16;;;;;;;5.20;1.10;;;;;;;;;;10352633;28;20054;-78
2022/10/12 03:40:19;;;;;;;1.35;1.00;;;;;;;;;;10355282;28;20042;-79
2022/10/12 03:45:23;;;;;;;1.15;0.82;;;;;;;;;;10348982;28;20387;-77
2022/10/12 03:50:27;;;;;;;1.88;0.98;;;;;;;;;;10336325;28;20053;-76
2022/10/12 03:55:31;;;;;;;1.17;1.00;;;;;;;;;;10340481;28;20045;-77
2022/10/12 04:00:34;;;;;;;1.60;1.20;;;;;;;;;;10355979;28;20046;-76
2022/10/12 04:05:39;;;;;;;2.60;1.42;;;;;;;;;;10332046;28;20045;-77
2022/10/12 04:10:43;;;;;;;2.53;1.40;;;;;;;;;;10323109;28;20133;-76
2022/10/12 04:15:47;;;;;;;1.90;1.17;;;;;;;;;;10348794;28;20041;-80
2022/10/12 04:20:53;;;;;;;2.85;1.15;;;;;;;;;;10330135;28;20737;-79
2022/10/12 04:25:56;;;;;;;2.25;1.38;;;;;;;;;;10346445;28;20042;-81
2022/10/12 04:31:00;;;;;;;2.08;1.00;;;;;;;;;;10347015;28;20050;-79
2022/10/12 04:36:05;;;;;;;3.25;1.40;;;;;;;;;;10348587;28;20038;-79
2022/10/12 04:41:08;;;;;;;1.33;1.10;;;;;;;;;;10342576;28;20100;-76
2022/10/12 04:46:11;;;;;;;1.73;0.80;;;;;;;;;;10360497;28;20046;-78
2022/10/12 04:51:16;;;;;;;1.52;0.90;;;;;;;;;;10329739;28;20058;-78
2022/10/12 04:56:19;;;;;;;1.42;1.00;;;;;;;;;;10330773;28;20042;-81
2022/10/12 05:01:23;;;;;;;2.63;1.35;;;;;;;;;;10359660;28;20057;-80
2022/10/12 05:06:27;;;;;;;3.53;1.60;;;;;;;;;;10353691;28;20046;-77
2022/10/12 05:11:31;;;;;;;2.22;1.30;;;;;;;;;;10351137;28;20696;-78
2022/10/12 05:16:34;;;;;;;2.65;1.50;;;;;;;;;;10352081;28;20494;-75
2022/10/12 05:21:39;;;;;;;6.85;1.42;;;;;;;;;;10364607;28;20050;-80
2022/10/12 05:26:42;;;;;;;3.70;1.35;;;;;;;;;;10371600;28;20042;-79
2022/10/12 05:31:46;;;;;;;2.55;1.27;;;;;;;;;;10349731;28;20577;-75
2022/10/12 05:36:50;;;;;;;1.52;1.23;;;;;;;;;;10364545;28;20089;-79
2022/10/12 05:41:54;;;;;;;2.75;1.70;;;;;;;;;;10358324;28;20141;-75
2022/10/12 05:46:58;;;;;;;2.63;1.63;;;;;;;;;;10352630;28;20055;-75
2022/10/12 05:52:02;;;;;;;3.72;1.77;;;;;;;;;;10347483;28;20125;-77
2022/10/12 05:57:08;;;;;;;2.63;1.80;;;;;;;;;;10338383;28;20046;-80
2022/10/12 06:02:16;;;;;;;3.50;1.63;;;;;;;;;;10346478;28;20051;-78
2022/10/12 06:07:20;;;;;;;5.50;2.17;;;;;;;;;;10330162;28;20054;-80
2022/10/12 06:12:25;;;;;;;3.40;2.00;;;;;;;;;;10327267;28;20049;-78
2022/10/12 06:17:28;;;;;;;2.67;1.73;;;;;;;;;;10347616;28;20049;-80
2022/10/12 06:22:33;;;;;;;2.55;1.50;;;;;;;;;;10369999;28;20041;-78
2022/10/12 06:27:36;;;;;;;1.48;1.23;;;;;;;;;;10369247;28;20054;-78
2022/10/12 06:32:39;;;;;;;2.60;1.25;;;;;;;;;;10336045;28;20042;-79
2022/10/12 06:37:50;;;;;;;3.30;1.80;;;;;;;;;;10328031;28;20074;-79
2022/10/12 06:42:53;;;;;;;2.17;1.45;;;;;;;;;;10331296;28;20054;-80
2022/10/12 06:48:00;;;;;;;1.55;1.30;;;;;;;;;;10357736;28;20045;-80
2022/10/12 06:53:04;;;;;;;2.75;1.13;;;;;;;;;;10341918;28;20506;-78
2022/10/12 06:58:07;;;;;;;1.77;1.08;;;;;;;;;;10354821;28;20069;-80
2022/10/12 07:03:13;;;;;;;2.90;2.28;;;;;;;;;;10335158;28;20043;-75
2022/10/12 07:08:18;;;;;;;3.97;2.97;;;;;;;;;;10342127;28;20389;-80
2022/10/12 07:13:21;;;;;;;3.03;1.60;;;;;;;;;;10347336;28;20046;-78
2022/10/12 07:18:24;;;;;;;1.77;1.30;;;;;;;;;;10359365;28;20756;-80
2022/10/12 07:23:29;;;;;;;2.40;1.20;;;;;;;;;;10327164;28;20046;-81
2022/10/12 07:28:34;;;;;;;2.15;1.40;;;;;;;;;;10343650;28;20411;-79
2022/10/12 07:33:38;;;;;;;2.25;1.48;;;;;;;;;;10351420;28;20136;-79
2022/10/12 07:38:44;;;;;;;2.10;1.40;;;;;;;;;;10352306;28;20045;-79
2022/10/12 07:43:47;;;;;;;2.67;1.48;;;;;;;;;;10350315;28;20069;-79
2022/10/12 07:48:51;;;;;;;1.95;1.38;;;;;;;;;;10330004;28;20045;-80
2022/10/12 07:53:55;;;;;;;3.72;1.50;;;;;;;;;;10331291;28;20049;-78
2022/10/12 07:58:59;;;;;;;2.88;1.50;;;;;;;;;;10318827;28;20057;-79
2022/10/12 08:04:02;;;;;;;3.28;1.98;;;;;;;;;;10369467;28;20046;-80
2022/10/12 08:09:07;;;;;;;1.98;1.42;;;;;;;;;;10349805;28;20061;-77
2022/10/12 08:14:15;;;;;;;1.95;1.20;;;;;;;;;;10344686;28;20041;-80
2022/10/12 08:19:18;;;;;;;1.95;1.20;;;;;;;;;;10369382;28;20077;-82
2022/10/12 08:24:23;;;;;;;3.67;1.40;;;;;;;;;;10361600;28;20066;-79
2022/10/12 08:29:26;;;;;;;3.40;1.38;;;;;;;;;;10345550;28;20053;-79
2022/10/12 08:34:30;;;;;;;3.80;1.85;;;;;;;;;;10337016;28;20046;-80
2022/10/12 08:39:34;;;;;;;3.28;2.00;;;;;;;;;;10330644;28;20034;-79
2022/10/12 08:44:52;;;;;;;3.85;2.28;;;;;;;;;;10334233;28;20042;-77
2022/10/12 08:49:55;;;;;;;2.13;1.50;;;;;;;;;;10340240;28;20438;-78
2022/10/12 08:55:06;;;;;;;3.55;1.60;;;;;;;;;;10328876;28;20647;-79
2022/10/12 09:00:14;;;;;;;1.73;1.20;;;;;;;;;;10344048;28;20038;-80
2022/10/12 09:05:22;;;;;;;1.95;1.20;;;;;;;;;;10337044;28;20414;-79
2022/10/12 09:10:38;;;;;;;6.15;2.58;;;;;;;;;;10335563;28;20046;-76
2022/10/12 09:15:48;;;;;;;6.55;3.00;;;;;;;;;;10328536;28;20041;-75
2022/10/12 09:20:53;;;;;;;4.45;1.95;;;;;;;;;;10329683;28;20101;-79
2022/10/12 09:26:04;;;;;;;2.30;1.23;;;;;;;;;;10359799;28;20030;-79
2022/10/12 09:31:24;;;;;;;8.93;2.72;;;;;;;;;;10347013;28;20462;-79
2022/10/12 09:36:31;;;;;;;3.50;1.75;;;;;;;;;;10322903;28;20554;-81
2022/10/12 09:41:39;;;;;;;2.03;1.33;;;;;;;;;;10350145;28;20370;-81
2022/10/12 09:46:49;;;;;;;3.88;1.50;;;;;;;;;;10332623;28;20049;-79
2022/10/12 09:51:59;;;;;;;5.43;1.98;;;;;;;;;;10341921;28;20061;-78
2022/10/12 09:57:04;;;;;;;2.55;1.10;;;;;;;;;;10352701;28;20053;-79
2022/10/12 10:02:16;;;;;;;2.53;1.80;;;;;;;;;;10353971;28;20050;-80
2022/10/12 10:07:23;;;;;;;1.92;1.25;;;;;;;;;;10347744;28;20057;-80
2022/10/12 10:12:28;;;;;;;4.07;1.38;;;;;;;;;;10354661;28;20432;-80
2022/10/12 10:17:33;;;;;;;2.17;0.98;;;;;;;;;;10326637;28;20042;-79
2022/10/12 10:22:36;;;;;;;2.88;1.33;;;;;;;;;;10336510;28;20256;-81
2022/10/12 10:27:41;;;;;;;4.13;1.58;;;;;;;;;;10334415;28;20081;-79
2022/10/12 10:32:46;;;;;;;2.30;1.52;;;;;;;;;;10340196;28;20045;-81
2022/10/12 10:37:51;;;;;;;3.67;1.83;;;;;;;;;;10328650;28;20105;-79
2022/10/12 10:42:57;;;;;;;3.45;1.50;;;;;;;;;;10319174;28;20081;-78
2022/10/12 10:48:07;;;;;;;9.15;4.03;;;;;;;;;;10378153;28;20502;-79
2022/10/12 10:53:20;;;;;;;9.50;3.72;;;;;;;;;;10320759;28;20046;-80
2022/10/12 10:58:31;;;;;;;6.38;2.70;;;;;;;;;;10348710;28;20041;-79
2022/10/12 11:03:45;;;;;;;2.75;1.65;;;;;;;;;;10336523;28;20122;-77
2022/10/12 11:09:02;;;;;;;4.20;1.65;;;;;;;;;;10327461;28;20054;-80
2022/10/12 11:14:15;;;;;;;2.35;1.30;;;;;;;;;;10347572;28;20050;-79
2022/10/12 11:19:26;;;;;;;2.08;1.10;;;;;;;;;;10335163;28;20049;-78
2022/10/12 11:24:38;;;;;;;7.88;3.38;;;;;;;;;;10351389;28;20053;-80
2022/10/12 11:29:43;;;;;;;4.43;1.90;;;;;;;;;;10345086;28;20520;-80
2022/10/12 11:35:01;;;;;;;4.10;2.00;;;;;;;;;;10335282;28;20516;-79
2022/10/12 11:40:09;;;;;;;1.73;1.10;;;;;;;;;;10344167;28;20250;-79
2022/10/12 11:45:23;;;;;;;3.53;1.60;;;;;;;;;;10353348;28;20048;-80
2022/10/12 11:50:30;;;;;;;2.17;1.27;;;;;;;;;;10341751;28;20038;-78
2022/10/12 11:55:47;;;;;;;2.65;1.40;;;;;;;;;;10355731;28;20053;-78
2022/10/12 12:01:08;;;;;;;4.00;1.00;;;;;;;;;;10332553;28;20081;-81
2022/10/12 12:06:48;;;;;;;1.05;0.70;;;;;;;;;;10350617;28;20053;-81
2022/10/12 12:11:51;;;;;;;3.78;1.23;;;;;;;;;;10345061;28;20462;-81
2022/10/12 12:17:13;;;;;;;6.90;1.55;;;;;;;;;;10321515;28;20057;-79
2022/10/12 12:22:23;;;;;;;3.70;1.48;;;;;;;;;;10326057;28;20062;-79
2022/10/12 12:27:36;;;;;;;3.10;0.80;;;;;;;;;;10336396;28;20049;-79
2022/10/12 12:32:47;;;;;;;2.13;0.90;;;;;;;;;;10369882;28;20124;-81
2022/10/12 12:38:02;;;;;;;1.33;0.88;;;;;;;;;;10353872;28;20050;-79
2022/10/12 12:44:00;;;;;;;1.08;0.93;;;;;;;;;;10341882;28;20046;-78
2022/10/12 12:49:24;;;;;;;3.75;1.60;;;;;;;;;;10360458;28;20034;-79
2022/10/12 12:54:28;;;;;;;3.03;1.10;;;;;;;;;;10346740;28;20105;-81
2022/10/12 13:00:04;;;;;;;1.83;1.02;;;;;;;;;;10344910;28;20129;-79
2022/10/12 13:05:43;;;;;;;2.40;1.05;;;;;;;;;;10325011;28;20046;-77
2022/10/12 13:11:01;;;;;;;3.78;1.38;;;;;;;;;;10363893;28;20050;-81
2022/10/12 13:16:16;;;;;;;1.88;0.90;;;;;;;;;;10364957;28;20041;-78
2022/10/12 13:21:31;;;;;;;1.70;0.88;;;;;;;;;;10358283;28;20125;-80
2022/10/12 13:26:36;;;;;;;1.33;0.93;;;;;;;;;;10367092;28;20053;-80
2022/10/12 13:31:44;;;;;;;2.00;1.00;;;;;;;;;;10380619;28;20125;-76
2022/10/12 13:36:55;;;;;;;3.00;1.38;;;;;;;;;;10363677;28;20053;-79
2022/10/12 13:42:01;;;;;;;4.10;1.20;;;;;;;;;;10367053;28;20680;-75
2022/10/12 13:47:21;;;;;;;1.88;1.05;;;;;;;;;;10357867;28;20518;-75
2022/10/12 13:52:28;;;;;;;2.53;1.20;;;;;;;;;;10359565;28;20065;-79
2022/10/12 13:57:39;;;;;;;3.45;1.40;;;;;;;;;;10346224;28;20102;-77
2022/10/12 14:02:53;;;;;;;1.67;1.13;;;;;;;;;;10374591;28;20053;-77
2022/10/12 14:08:01;;;;;;;2.72;1.02;;;;;;;;;;10352366;28;20038;-77
2022/10/12 14:13:08;;;;;;;1.65;1.23;;;;;;;;;;10359006;28;20619;-77
2022/10/12 14:18:33;;;;;;;1.73;1.15;;;;;;;;;;10377146;28;20048;-78
2022/10/12 14:23:43;;;;;;;6.70;1.50;;;;;;;;;;10352481;28;20493;-78
2022/10/12 14:28:46;;;;;;;2.45;1.23;;;;;;;;;;10360578;28;20548;-78
2022/10/12 14:33:50;;;;;;;3.22;1.33;;;;;;;;;;10360182;28;20129;-79
2022/10/12 14:38:54;;;;;;;1.95;1.08;;;;;;;;;;10356276;28;20049;-79
2022/10/12 14:44:10;;;;;;;3.78;1.75;;;;;;;;;;10360434;28;20038;-79
2022/10/12 14:49:18;;;;;;;3.92;1.00;;;;;;;;;;10355064;28;20034;-79
2022/10/12 14:54:23;;;;;;;2.17;1.33;;;;;;;;;;10360577;28;20052;-79
2022/10/12 14:59:26;;;;;;;2.35;1.08;;;;;;;;;;10362621;28;20058;-76
2022/10/12 15:04:29;;;;;;;2.78;1.02;;;;;;;;;;10331158;28;20726;-77
2022/10/12 15:09:34;;;;;;;3.08;1.20;;;;;;;;;;10369784;28;20046;-79
2022/10/12 15:14:40;;;;;;;4.43;1.63;;;;;;;;;;10349177;28;20049;-78
2022/10/12 15:19:44;;;;;;;3.53;1.23;;;;;;;;;;10347027;28;20498;-79
2022/10/12 15:24:50;;;;;;;3.17;1.20;;;;;;;;;;10356709;28;20459;-79
2022/10/12 15:29:53;;;;;;;4.47;1.45;;;;;;;;;;10372116;28;20373;-77
2022/10/12 15:34:56;;;;;;;2.17;1.10;;;;;;;;;;10337689;28;20391;-78
2022/10/12 15:40:01;;;;;;;2.17;1.13;;;;;;;;;;10355791;28;20502;-79
2022/10/12 15:45:15;;;;;;;3.08;1.15;;;;;;;;;;10353274;28;20046;-79
2022/10/12 15:50:21;;;;;;;2.40;1.20;;;;;;;;;;10371507;28;20057;-79
2022/10/12 15:55:28;;;;;;;2.95;1.27;;;;;;;;;;10339030;28;20050;-77
2022/10/12 16:00:32;;;;;;;2.03;1.30;;;;;;;;;;10329589;28;20388;-79
2022/10/12 16:05:45;;;;;;;3.42;1.25;;;;;;;;;;10349865;28;20115;-75
2022/10/12 16:10:52;;;;;;;;;;;;;;;;;;10346536;28;20483;-78
2022/10/12 16:15:55;;;;;;;3.55;1.10;;;;;;;;;;10341681;28;19936;-77
2022/10/12 16:20:59;;;;;;;1.70;1.00;;;;;;;;;;10367164;28;20043;-80
2022/10/12 16:26:05;;;;;;;2.05;1.27;;;;;;;;;;10354103;28;20041;-78
2022/10/12 16:31:10;;;;;;;2.50;1.25;;;;;;;;;;10361221;28;20045;-77
2022/10/12 16:36:15;;;;;;;2.35;1.30;;;;;;;;;;10374612;28;20053;-79
2022/10/12 16:41:20;;;;;;;2.05;1.40;;;;;;;;;;10348002;28;20113;-80
2022/10/12 16:46:23;;;;;;;2.67;1.45;;;;;;;;;;10326802;28;20054;-80
2022/10/12 16:51:26;;;;;;;2.75;1.73;;;;;;;;;;10367069;28;20267;-77
2022/10/12 16:56:31;;;;;;;3.15;1.65;;;;;;;;;;10349936;28;20461;-79
2022/10/12 17:01:37;;;;;;;5.93;1.73;;;;;;;;;;10362334;28;20065;-80
2022/10/12 17:06:40;;;;;;;4.28;1.83;;;;;;;;;;10347711;28;20068;-76
2022/10/12 17:11:45;;;;;;;3.25;1.85;;;;;;;;;;10320092;28;20058;-75
2022/10/12 17:16:55;;;;;;;5.45;2.00;;;;;;;;;;10338034;28;20050;-77
2022/10/12 17:21:59;;;;;;;3.22;1.85;;;;;;;;;;10345870;28;20134;-79
2022/10/12 17:27:06;;;;;;;4.53;2.40;;;;;;;;;;10345969;28;20053;-78
2022/10/12 17:32:11;;;;;;;3.55;1.92;;;;;;;;;;10371372;28;20057;-79
2022/10/12 17:37:17;;;;;;;3.17;1.98;;;;;;;;;;10340306;28;20070;-80
2022/10/12 17:42:22;;;;;;;6.30;2.35;;;;;;;;;;10342476;28;20061;-79
2022/10/12 17:47:25;;;;;;;3.53;2.10;;;;;;;;;;10362864;28;20052;-77
2022/10/12 17:52:28;;;;;;;4.60;2.22;;;;;;;;;;10352833;28;20062;-77
2022/10/12 17:57:33;;;;;;;2.63;1.65;;;;;;;;;;10363969;28;20528;-79
2022/10/12 18:02:37;;;;;;;2.92;1.83;;;;;;;;;;10362127;28;20046;-78
2022/10/12 18:07:40;;;;;;;2.38;1.75;;;;;;;;;;10343246;28;20120;-78
2022/10/12 18:12:44;;;;;;;3.70;1.83;;;;;;;;;;10359325;28;20045;-77
2022/10/12 18:17:48;;;;;;;4.03;2.42;;;;;;;;;;10360099;28;20061;-80
2022/10/12 18:22:52;;;;;;;2.92;1.65;;;;;;;;;;10342589;28;20057;-77
2022/10/12 18:27:56;;;;;;;2.88;1.55;;;;;;;;;;10329843;28;20057;-77
2022/10/12 18:33:00;;;;;;;1.88;1.48;;;;;;;;;;10345011;28;20053;-80
2022/10/12 18:38:06;;;;;;;4.80;1.80;;;;;;;;;;10344321;28;20133;-77
2022/10/12 18:43:11;;;;;;;4.32;2.47;;;;;;;;;;10353518;28;20057;-80
2022/10/12 18:48:15;;;;;;;6.63;3.75;;;;;;;;;;10325193;28;20049;-77
2022/10/12 18:53:19;;;;;;;4.53;3.45;;;;;;;;;;10340695;28;20049;-77
2022/10/12 18:58:23;;;;;;;6.03;3.03;;;;;;;;;;10356765;28;20129;-78
2022/10/12 19:03:27;;;;;;;5.70;3.17;;;;;;;;;;10350141;28;20038;-77
2022/10/12 19:08:30;;;;;;;4.05;3.05;;;;;;;;;;10315870;28;20043;-77
2022/10/12 19:13:35;;;;;;;3.22;2.53;;;;;;;;;;10356264;28;20748;-78
2022/10/12 19:18:39;;;;;;;5.88;3.00;;;;;;;;;;10350558;28;20044;-77
2022/10/12 19:23:43;;;;;;;6.18;3.53;;;;;;;;;;10355194;28;20053;-78
2022/10/12 19:28:48;;;;;;;6.20;4.20;;;;;;;;;;10341704;28;20038;-77
2022/10/12 19:33:53;;;;;;;7.13;4.25;;;;;;;;;;10346036;28;20046;-78
2022/10/12 19:38:57;;;;;;;6.97;4.23;;;;;;;;;;10355926;28;20058;-77
2022/10/12 19:44:03;;;;;;;7.57;4.22;;;;;;;;;;10353799;28;20052;-76
2022/10/12 19:49:06;;;;;;;11.80;6.97;;;;;;;;;;10346333;28;20104;-77
2022/10/12 19:54:11;;;;;;;16.13;8.63;;;;;;;;;;10349502;28;20042;-76
2022/10/12 19:59:16;;;;;;;16.17;9.57;;;;;;;;;;10346894;28;20038;-77
2022/10/12 20:04:19;;;;;;;13.45;8.52;;;;;;;;;;10354280;28;20295;-76
2022/10/12 20:09:23;;;;;;;11.80;8.07;;;;;;;;;;10338846;28;20113;-77
2022/10/12 20:14:28;;;;;;;11.20;5.97;;;;;;;;;;10354747;28;20053;-75
2022/10/12 20:19:32;;;;;;;8.15;5.13;;;;;;;;;;10338442;28;20480;-80
2022/10/12 20:24:36;;;;;;;7.70;5.20;;;;;;;;;;10322454;28;20129;-79
2022/10/12 20:29:41;;;;;;;10.77;5.32;;;;;;;;;;10347305;28;20038;-79
2022/10/12 20:34:44;;;;;;;9.07;4.40;;;;;;;;;;10352732;28;20092;-77
2022/10/12 20:39:51;;;;;;;8.20;4.10;;;;;;;;;;10336185;28;20058;-79
2022/10/12 20:44:56;;;;;;;6.50;4.40;;;;;;;;;;10338020;28;20050;-76
2022/10/12 20:49:59;;;;;;;10.60;3.92;;;;;;;;;;10348010;28;20053;-77
2022/10/12 20:55:03;;;;;;;6.85;3.83;;;;;;;;;;10354913;28;20054;-76
2022/10/12 21:00:09;;;;;;;5.45;3.85;;;;;;;;;;10362880;28;20057;-78
2022/10/12 21:05:12;;;;;;;8.07;4.03;;;;;;;;;;10336293;28;20038;-77
2022/10/12 21:10:16;;;;;;;5.90;4.20;;;;;;;;;;10326881;28;20606;-77
2022/10/12 21:15:21;;;;;;;6.95;3.58;;;;;;;;;;10337014;28;20460;-77
2022/10/12 21:20:24;;;;;;;6.45;3.42;;;;;;;;;;10357413;28;20054;-75
2022/10/12 21:25:27;;;;;;;4.47;3.67;;;;;;;;;;10344590;28;20057;-77
2022/10/12 21:30:32;;;;;;;5.47;3.20;;;;;;;;;;10335323;28;20038;-78
2022/10/12 21:35:35;;;;;;;4.82;2.92;;;;;;;;;;10327830;28;20046;-77
2022/10/12 21:40:38;;;;;;;6.25;3.22;;;;;;;;;;10353646;28;20089;-77
2022/10/12 21:45:43;;;;;;;5.20;2.83;;;;;;;;;;10360777;28;20046;-78
2022/10/12 21:50:46;;;;;;;5.75;3.20;;;;;;;;;;10338561;28;20517;-77
2022/10/12 21:55:50;;;;;;;4.40;2.90;;;;;;;;;;10359972;28;20046;-80
2022/10/12 22:01:04;;;;;;;4.38;2.92;;;;;;;;;;10358288;28;20101;-76
2022/10/12 22:06:11;;;;;;;4.70;2.72;;;;;;;;;;10354754;28;20514;-77
2022/10/12 22:11:14;;;;;;;6.65;3.20;;;;;;;;;;10336133;28;20506;-76
2022/10/12 22:16:19;;;;;;;4.95;3.10;;;;;;;;;;10343115;28;20069;-77
2022/10/12 22:21:22;;;;;;;3.72;2.72;;;;;;;;;;10365681;28;20042;-79
2022/10/12 22:26:26;;;;;;;6.05;2.85;;;;;;;;;;10336814;28;20085;-74
2022/10/12 22:31:31;;;;;;;4.13;2.75;;;;;;;;;;10353726;28;20136;-76
2022/10/12 22:36:35;;;;;;;3.58;2.47;;;;;;;;;;10361936;28;20528;-78
2022/10/12 22:41:38;;;;;;;4.97;2.60;;;;;;;;;;10353378;28;20041;-78
2022/10/12 22:46:42;;;;;;;4.28;2.28;;;;;;;;;;10327604;28;20046;-78
2022/10/12 22:51:46;;;;;;;4.57;2.50;;;;;;;;;;10371609;28;20048;-75
2022/10/12 22:56:50;;;;;;;5.18;2.30;;;;;;;;;;10359697;28;20065;-76
2022/10/12 23:01:54;;;;;;;4.70;3.08;;;;;;;;;;10334579;28;20054;-76
2022/10/12 23:07:00;;;;;;;5.05;2.78;;;;;;;;;;10348462;28;20046;-76
2022/10/12 23:12:04;;;;;;;3.97;2.90;;;;;;;;;;10339104;28;20060;-74
2022/10/12 23:17:09;;;;;;;7.90;3.55;;;;;;;;;;10359795;28;20276;-79
2022/10/12 23:22:12;;;;;;;3.97;2.88;;;;;;;;;;10342868;28;20042;-77
2022/10/12 23:27:15;;;;;;;4.35;2.97;;;;;;;;;;10335705;28;20108;-78
2022/10/12 23:32:21;;;;;;;4.05;2.65;;;;;;;;;;10365936;28;20073;-79
2022/10/12 23:37:24;;;;;;;3.47;2.63;;;;;;;;;;10332412;28;20418;-76
2022/10/12 23:42:27;;;;;;;3.20;2.28;;;;;;;;;;10359210;28;20422;-79
2022/10/12 23:47:32;;;;;;;4.53;2.60;;;;;;;;;;10321047;28;20044;-78
2022/10/12 23:52:35;;;;;;;3.90;2.53;;;;;;;;;;10360599;28;20130;-78
2022/10/12 23:57:39;;;;;;;3.22;2.58;;;;;;;;;;10333706;28;20041;-77
